createdAt,value
2023-09-15T00:11:10.720Z,13.62
2023-09-15T00:31:11.533Z,13.23
2023-09-15T00:51:12.901Z,12.85
2023-09-15T01:11:11.923Z,12.52
2023-09-15T01:31:10.800Z,12.3
2023-09-15T01:51:10.894Z,12.33
2023-09-15T02:11:10.875Z,12.12
2023-09-15T02:31:10.923Z,11.91
2023-09-15T02:51:10.976Z,11.55
2023-09-15T03:11:11.099Z,11.48
2023-09-15T03:31:11.188Z,11.34
2023-09-15T03:51:11.081Z,11.1
2023-09-15T04:11:11.075Z,10.87
2023-09-15T04:31:11.903Z,10.66
2023-09-15T04:51:11.160Z,10.59
2023-09-15T05:11:11.145Z,10.5
2023-09-15T05:31:11.330Z,10.52
2023-09-15T05:51:11.232Z,10.73
2023-09-15T06:11:11.353Z,11.18
2023-09-15T06:31:11.580Z,11.7
2023-09-15T06:51:11.315Z,12.29
2023-09-15T07:11:11.395Z,14.01
2023-09-15T07:31:11.472Z,14.77
2023-09-15T07:51:11.488Z,16.17
2023-09-15T08:11:11.394Z,17.18
2023-09-15T08:31:11.580Z,18.11
2023-09-15T08:51:11.650Z,18.85
2023-09-15T09:11:11.582Z,19.57
2023-09-15T09:31:11.892Z,20.35
2023-09-15T09:51:11.582Z,20.48
2023-09-15T10:11:11.615Z,20.99
2023-09-15T10:31:13.828Z,22.86
2023-09-15T10:51:11.714Z,26.25
2023-09-15T11:11:12.350Z,27.64
2023-09-15T11:31:12.138Z,28.13
2023-09-15T11:51:11.826Z,28
2023-09-15T12:11:12.978Z,27.2
2023-09-15T12:31:11.921Z,26.64
2023-09-15T12:51:11.896Z,28.79
2023-09-15T13:11:11.866Z,26.26
2023-09-15T13:31:12.044Z,27.01
2023-09-15T13:51:12.151Z,27.78
2023-09-15T14:11:11.971Z,26.77
2023-09-15T14:31:12.068Z,25.82
2023-09-15T14:51:12.004Z,25.69
2023-09-15T15:11:11.970Z,25.41
2023-09-15T15:31:12.046Z,25.07
2023-09-15T15:51:12.157Z,24.4
2023-09-15T16:11:12.100Z,23.94
2023-09-15T16:31:12.388Z,23.36
2023-09-15T16:51:12.182Z,22.76
2023-09-15T17:11:12.342Z,22.03
2023-09-15T17:31:12.188Z,21.42
2023-09-15T17:51:12.425Z,20.02
2023-09-15T18:11:12.227Z,18.88
2023-09-15T18:31:12.404Z,18.14
2023-09-15T18:51:12.289Z,17.69
2023-09-15T19:11:12.423Z,17.08
2023-09-15T19:31:12.464Z,16.52
2023-09-15T19:51:12.428Z,16.1
2023-09-15T20:11:12.419Z,15.68
2023-09-15T20:31:12.489Z,15.35
2023-09-15T20:51:12.532Z,15.14
2023-09-15T21:11:12.486Z,14.88
2023-09-15T21:31:12.734Z,14.65
2023-09-15T21:51:12.590Z,14.42
2023-09-15T22:11:12.852Z,14.21
2023-09-15T22:31:12.665Z,13.99
2023-09-15T22:51:12.678Z,13.72
2023-09-15T23:11:12.706Z,13.46
2023-09-15T23:31:12.812Z,13.25
2023-09-15T23:51:12.772Z,13.06
